Time;durP1;ratioP1;P1;durP2;ratioP2;P2;SDS_P1;SDS_P2;PMS_P1;PMS_P2;Temp;Humidity;BMP_temperature;BMP_pressure;BME280_temperature;BME280_humidity;BME280_pressure;Samples;Min_cycle;Max_cycle;Signal;HPM_P1;HPM_P2
2022/06/05 00:01:39;;;;;;;1.67;1.30;;;26.60;49.60;;;;;;5055713;28;20804;-63
2022/06/05 00:04:23;;;;;;;1.80;1.30;;;26.60;49.80;;;;;;5058008;28;20133;-60
2022/06/05 00:06:55;;;;;;;1.70;1.25;;;26.60;49.70;;;;;;5053593;28;20086;-63
2022/06/05 00:09:34;;;;;;;1.80;1.23;;;26.50;49.60;;;;;;5052409;28;20028;-60
2022/06/05 00:12:13;;;;;;;2.15;1.60;;;26.50;50.20;;;;;;5056623;28;20074;-60
2022/06/05 00:14:39;;;;;;;;;;;26.50;49.70;;;;;;5053599;28;20020;-63
2022/06/05 00:17:11;;;;;;;1.58;1.30;;;26.50;49.60;;;;;;5054015;28;19953;-64
2022/06/05 00:19:40;;;;;;;2.05;1.40;;;26.50;49.60;;;;;;5056371;28;20032;-64
2022/06/05 00:22:06;;;;;;;1.67;1.42;;;26.40;49.60;;;;;;5054956;28;20039;-63
2022/06/05 00:24:34;;;;;;;1.42;1.30;;;26.40;49.60;;;;;;5055393;28;20036;-63
2022/06/05 00:27:13;;;;;;;1.70;1.40;;;26.40;49.60;;;;;;5055957;28;20082;-63
2022/06/05 00:29:54;;;;;;;1.70;1.40;;;26.40;49.70;;;;;;5055155;28;20025;-63
2022/06/05 00:32:44;;;;;;;1.63;1.27;;;26.40;49.70;;;;;;5056058;28;20037;-60
2022/06/05 00:35:15;;;;;;;1.52;1.30;;;26.30;49.70;;;;;;5054041;28;20439;-59
2022/06/05 00:37:52;;;;;;;1.42;1.20;;;26.30;49.70;;;;;;5056583;28;20060;-65
2022/06/05 00:40:45;;;;;;;1.63;1.40;;;26.30;49.70;;;;;;5051238;28;20036;-62
2022/06/05 00:43:15;;;;;;;1.90;1.30;;;26.30;49.70;;;;;;5056115;28;20104;-61
2022/06/05 00:45:41;;;;;;;;;;;26.30;49.70;;;;;;5054389;28;20456;-59
2022/06/05 00:48:08;;;;;;;1.70;1.23;;;26.30;49.70;;;;;;5057261;28;19923;-63
2022/06/05 00:50:34;;;;;;;1.73;1.40;;;26.30;50.30;;;;;;5052610;28;20029;-60
2022/06/05 00:53:05;;;;;;;1.70;1.40;;;26.30;49.80;;;;;;5051048;28;20097;-63
2022/06/05 00:55:40;;;;;;;1.58;1.20;;;26.30;49.80;;;;;;5055184;28;20029;-60
2022/06/05 00:58:06;;;;;;;1.50;1.27;;;26.30;49.90;;;;;;5059723;28;20036;-60
2022/06/05 01:00:37;;;;;;;1.55;1.38;;;26.20;49.80;;;;;;5057933;28;20367;-61
2022/06/05 01:03:08;;;;;;;1.48;1.30;;;26.20;49.80;;;;;;5057244;28;20083;-63
2022/06/05 01:05:33;;;;;;;1.52;1.38;;;26.20;49.90;;;;;;5059177;28;20031;-61
2022/06/05 01:07:59;;;;;;;1.50;1.25;;;26.20;49.90;;;;;;5057471;28;20078;-62
2022/06/05 01:10:32;;;;;;;2.22;1.33;;;26.20;49.90;;;;;;5058887;28;20086;-62
2022/06/05 01:13:26;;;;;;;1.30;1.20;;;26.20;49.90;;;;;;5056985;28;20425;-60
2022/06/05 01:16:02;;;;;;;1.50;1.30;;;26.10;49.90;;;;;;5058788;28;20545;-64
2022/06/05 01:18:37;;;;;;;1.98;1.33;;;26.10;49.90;;;;;;5056302;28;20050;-62
2022/06/05 01:21:09;;;;;;;1.58;1.17;;;26.10;49.90;;;;;;5057953;28;20115;-60
2022/06/05 01:24:12;;;;;;;1.52;1.20;;;26.10;50.00;;;;;;5060089;28;20115;-64
2022/06/05 01:26:49;;;;;;;1.40;1.27;;;26.10;50.00;;;;;;5058139;28;20089;-63
2022/06/05 01:29:38;;;;;;;1.75;1.40;;;26.10;50.00;;;;;;5058255;28;20027;-64
2022/06/05 01:32:09;;;;;;;1.60;1.25;;;26.10;50.00;;;;;;5058261;28;20044;-63
2022/06/05 01:34:38;;;;;;;1.35;1.13;;;26.00;49.90;;;;;;5057994;28;20574;-62
2022/06/05 01:37:15;;;;;;;1.48;1.20;;;26.00;49.90;;;;;;5055138;28;20068;-63
2022/06/05 01:40:14;;;;;;;1.35;1.20;;;26.00;50.00;;;;;;5056773;28;20150;-63
2022/06/05 01:42:44;;;;;;;1.38;1.25;;;26.00;50.00;;;;;;5041067;28;20054;-60
2022/06/05 01:45:36;;;;;;;1.75;1.30;;;26.00;50.00;;;;;;5055490;28;20069;-59
2022/06/05 01:48:04;;;;;;;1.92;1.38;;;26.00;50.00;;;;;;5056769;28;20109;-64
2022/06/05 01:50:44;;;;;;;1.35;1.25;;;26.00;50.00;;;;;;5055509;28;20119;-59
2022/06/05 01:53:27;;;;;;;2.15;1.40;;;26.00;50.60;;;;;;5054339;28;20035;-59
2022/06/05 01:56:01;;;;;;;1.48;1.20;;;25.90;50.00;;;;;;5055175;28;20504;-64
2022/06/05 01:58:39;;;;;;;1.55;1.10;;;25.90;50.10;;;;;;5058132;28;20472;-63
2022/06/05 02:01:12;;;;;;;1.40;1.30;;;25.90;50.10;;;;;;5054265;28;20048;-59
2022/06/05 02:03:44;;;;;;;1.30;1.15;;;25.90;50.10;;;;;;5055036;28;20089;-64
2022/06/05 02:06:23;;;;;;;1.50;1.15;;;25.90;50.10;;;;;;5056225;28;20048;-59
2022/06/05 02:08:56;;;;;;;1.50;1.20;;;25.90;50.20;;;;;;5056864;28;20032;-60
2022/06/05 02:11:27;;;;;;;1.38;1.15;;;25.80;50.10;;;;;;5057721;28;20036;-63
2022/06/05 02:14:11;;;;;;;1.83;1.30;;;25.80;50.10;;;;;;5057525;28;20042;-64
2022/06/05 02:16:38;;;;;;;1.20;1.10;;;25.80;50.10;;;;;;5057031;28;20036;-59
2022/06/05 02:19:09;;;;;;;1.20;1.10;;;25.80;50.20;;;;;;5058595;28;20113;-64
2022/06/05 02:21:37;;;;;;;1.48;1.20;;;25.80;50.20;;;;;;5052879;28;20035;-64
2022/06/05 02:24:04;;;;;;;1.27;1.15;;;25.80;50.20;;;;;;5056361;28;20028;-64
2022/06/05 02:26:29;;;;;;;1.08;0.98;;;25.80;50.20;;;;;;5053235;28;20089;-61
2022/06/05 02:28:56;;;;;;;1.48;1.30;;;25.80;50.20;;;;;;5056734;28;20031;-63
2022/06/05 02:32:01;;;;;;;1.50;1.20;;;25.70;50.20;;;;;;5055622;28;20078;-60
2022/06/05 02:34:32;;;;;;;1.60;1.35;;;25.70;50.20;;;;;;5057778;28;20511;-64
2022/06/05 02:37:01;;;;;;;1.23;1.13;;;25.70;50.20;;;;;;5054654;28;20024;-59
2022/06/05 02:40:06;;;;;;;1.38;1.20;;;25.70;50.20;;;;;;5057346;28;20032;-63
2022/06/05 02:42:47;;;;;;;1.17;1.08;;;25.70;50.30;;;;;;5056214;28;20158;-59
2022/06/05 02:45:39;;;;;;;1.25;1.15;;;25.70;50.30;;;;;;5052626;28;20112;-63
2022/06/05 02:48:22;;;;;;;1.50;1.30;;;25.70;50.40;;;;;;5057007;28;20067;-62
2022/06/05 02:50:54;;;;;;;1.52;1.20;;;25.70;50.40;;;;;;5056650;28;20392;-62
2022/06/05 02:53:20;;;;;;;1.30;1.20;;;25.70;50.40;;;;;;5054546;28;20060;-64
2022/06/05 02:55:46;;;;;;;1.27;1.10;;;25.70;50.40;;;;;;5052610;28;20051;-60
2022/06/05 02:58:13;;;;;;;1.23;1.13;;;25.60;50.40;;;;;;5055594;28;20107;-63
2022/06/05 03:00:40;;;;;;;1.10;1.00;;;25.60;50.40;;;;;;5056571;28;20082;-60
2022/06/05 03:05:51;;;;;;;1.40;1.20;;;25.60;50.40;;;;;;5054111;28;20094;-64
2022/06/05 03:08:18;;;;;;;1.30;1.10;;;25.60;50.40;;;;;;5055749;28;20029;-60
2022/06/05 03:10:45;;;;;;;1.30;1.20;;;25.60;50.40;;;;;;5054001;28;20425;-59
2022/06/05 03:13:11;;;;;;;1.30;1.15;;;25.60;50.40;;;;;;5053849;28;20016;-61
2022/06/05 03:15:38;;;;;;;1.17;1.08;;;25.60;50.40;;;;;;5055392;28;20299;-64
2022/06/05 03:18:04;;;;;;;1.58;1.05;;;25.50;50.40;;;;;;5055560;28;20040;-58
2022/06/05 03:20:30;;;;;;;1.50;1.10;;;25.60;50.50;;;;;;5056976;28;20047;-63
2022/06/05 03:22:56;;;;;;;1.40;1.30;;;25.50;50.40;;;;;;5053216;28;20028;-61
2022/06/05 03:25:24;;;;;;;1.38;1.10;;;25.50;50.40;;;;;;5053951;28;20024;-62
2022/06/05 03:27:50;;;;;;;1.60;1.33;;;25.50;50.50;;;;;;5053513;28;20096;-59
2022/06/05 03:30:16;;;;;;;1.63;1.20;;;25.50;50.60;;;;;;5056556;28;20069;-61
2022/06/05 03:32:43;;;;;;;1.60;1.23;;;25.50;50.60;;;;;;5054968;28;20705;-65
2022/06/05 03:35:10;;;;;;;1.67;1.15;;;25.50;50.50;;;;;;5054522;28;20040;-60
2022/06/05 03:37:36;;;;;;;1.45;1.20;;;25.40;50.50;;;;;;5054234;28;20028;-61
2022/06/05 03:40:06;;;;;;;1.60;1.30;;;25.50;50.60;;;;;;5053491;28;20032;-59
2022/06/05 03:42:31;;;;;;;1.80;1.30;;;25.40;50.50;;;;;;5052576;28;20075;-60
2022/06/05 03:44:57;;;;;;;1.30;1.20;;;25.50;50.60;;;;;;5052984;28;20048;-63
2022/06/05 03:47:22;;;;;;;1.38;1.27;;;25.40;50.50;;;;;;5055280;28;20025;-58
2022/06/05 03:49:48;;;;;;;1.50;1.20;;;25.40;50.60;;;;;;5037834;28;20032;-61
2022/06/05 03:52:14;;;;;;;1.45;1.20;;;25.40;50.60;;;;;;5052500;28;20124;-61
2022/06/05 03:54:39;;;;;;;1.60;1.30;;;25.40;50.60;;;;;;5053387;28;20036;-64
2022/06/05 03:57:06;;;;;;;1.50;1.13;;;25.40;50.60;;;;;;5052940;28;20523;-59
2022/06/05 03:59:36;;;;;;;1.20;1.00;;;25.40;50.60;;;;;;5056269;28;20119;-60
2022/06/05 04:02:04;;;;;;;1.48;1.30;;;25.40;50.60;;;;;;5054889;28;20037;-63
2022/06/05 04:04:30;;;;;;;1.30;1.20;;;25.40;50.60;;;;;;5054790;28;20037;-63
2022/06/05 04:06:56;;;;;;;1.45;1.20;;;25.40;50.60;;;;;;5051063;28;20463;-64
2022/06/05 04:09:21;;;;;;;1.67;1.40;;;25.40;50.60;;;;;;5055062;28;20024;-62
2022/06/05 04:11:47;;;;;;;1.50;1.10;;;25.40;50.60;;;;;;5053720;28;20042;-61
2022/06/05 04:14:13;;;;;;;1.52;1.20;;;25.30;50.50;;;;;;5053139;28;20434;-62
2022/06/05 04:16:41;;;;;;;1.33;1.15;;;25.30;50.50;;;;;;5053929;28;20032;-60
2022/06/05 04:19:07;;;;;;;1.90;1.40;;;25.30;50.50;;;;;;5057022;28;20082;-61
2022/06/05 04:21:35;;;;;;;1.90;1.30;;;25.30;50.50;;;;;;5050062;28;20028;-64
2022/06/05 04:24:01;;;;;;;1.30;1.10;;;25.30;50.50;;;;;;5050922;28;20096;-64
2022/06/05 04:26:31;;;;;;;1.42;1.30;;;25.30;50.50;;;;;;5053350;28;20588;-64
2022/06/05 04:28:58;;;;;;;1.40;1.25;;;25.30;50.50;;;;;;5057058;28;20169;-59
2022/06/05 04:31:36;;;;;;;1.30;1.20;;;25.30;51.10;;;;;;5055217;28;20519;-63
2022/06/05 04:34:06;;;;;;;1.70;1.23;;;25.30;50.60;;;;;;5059223;28;20028;-63
2022/06/05 04:36:32;;;;;;;1.85;1.48;;;25.30;50.60;;;;;;5056079;28;20060;-59
2022/06/05 04:38:58;;;;;;;2.08;1.30;;;25.30;50.60;;;;;;5056639;28;20022;-60
2022/06/05 04:41:25;;;;;;;1.40;1.25;;;25.30;50.60;;;;;;5058587;28;20052;-59
2022/06/05 04:43:51;;;;;;;1.70;1.17;;;25.30;50.60;;;;;;5058317;28;21417;-61
2022/06/05 04:46:19;;;;;;;1.38;1.10;;;25.30;50.60;;;;;;5057006;28;20437;-63
2022/06/05 04:48:45;;;;;;;1.30;1.13;;;25.30;50.60;;;;;;5059529;28;20024;-58
2022/06/05 04:51:15;;;;;;;1.33;1.20;;;25.30;50.60;;;;;;5057666;28;20047;-60
2022/06/05 04:53:42;;;;;;;1.48;1.27;;;25.20;50.60;;;;;;5057385;28;20044;-62
2022/06/05 04:56:10;;;;;;;1.65;1.33;;;25.30;50.60;;;;;;5057840;28;20657;-63
2022/06/05 04:58:36;;;;;;;1.37;1.20;;;25.30;50.60;;;;;;5060344;28;20028;-63
2022/06/05 05:01:01;;;;;;;1.50;1.40;;;25.20;50.50;;;;;;5056578;28;20598;-62
2022/06/05 05:03:27;;;;;;;1.30;1.20;;;25.30;50.60;;;;;;5059811;28;20037;-60
2022/06/05 05:05:53;;;;;;;1.50;1.20;;;25.30;50.60;;;;;;5053651;28;20029;-64
2022/06/05 05:08:19;;;;;;;1.77;1.30;;;25.20;50.60;;;;;;5055897;28;20036;-63
2022/06/05 05:10:45;;;;;;;1.65;1.40;;;25.20;50.60;;;;;;5057773;28;20028;-64
2022/06/05 05:13:11;;;;;;;1.80;1.52;;;25.20;51.20;;;;;;5058406;28;20035;-63
2022/06/05 05:15:37;;;;;;;1.63;1.40;;;25.20;50.60;;;;;;5058403;28;20050;-60
2022/06/05 05:18:02;;;;;;;1.55;1.30;;;25.20;50.60;;;;;;5055540;28;20066;-62
2022/06/05 05:20:28;;;;;;;1.45;1.25;;;25.20;50.70;;;;;;5056219;28;20028;-63
2022/06/05 05:22:54;;;;;;;1.40;1.30;;;25.20;50.60;;;;;;5055750;28;20081;-62
2022/06/05 05:25:19;;;;;;;2.08;1.50;;;25.20;50.70;;;;;;5052041;28;20039;-61
2022/06/05 05:27:45;;;;;;;1.55;1.20;;;25.20;50.70;;;;;;5058043;28;20032;-64
2022/06/05 05:30:12;;;;;;;1.83;1.45;;;25.20;50.60;;;;;;5057850;28;20028;-58
2022/06/05 05:32:38;;;;;;;1.60;1.35;;;25.20;50.70;;;;;;5058281;28;20033;-63
2022/06/05 05:35:05;;;;;;;1.92;1.50;;;25.20;50.70;;;;;;5058401;28;20036;-59
2022/06/05 05:37:31;;;;;;;1.70;1.40;;;25.20;50.70;;;;;;5056364;28;20045;-64
2022/06/05 05:42:42;;;;;;;1.75;1.40;;;25.20;50.70;;;;;;5056975;28;20090;-61
2022/06/05 05:45:08;;;;;;;1.77;1.35;;;25.10;50.60;;;;;;5057556;28;20043;-62
2022/06/05 05:47:34;;;;;;;1.73;1.40;;;25.10;50.80;;;;;;5055950;28;20433;-61
2022/06/05 05:50:02;;;;;;;1.42;1.30;;;25.10;50.70;;;;;;5052552;28;20056;-63
2022/06/05 05:52:29;;;;;;;1.60;1.38;;;25.10;50.70;;;;;;5052384;28;20091;-60
2022/06/05 05:54:56;;;;;;;1.30;1.20;;;25.10;50.70;;;;;;5048974;28;20036;-59
2022/06/05 05:57:21;;;;;;;1.60;1.40;;;25.10;50.80;;;;;;5056167;28;20813;-60
2022/06/05 05:59:48;;;;;;;2.05;1.60;;;25.10;50.70;;;;;;5056729;28;20043;-59
2022/06/05 06:02:19;;;;;;;2.45;2.08;;;25.10;51.30;;;;;;5056155;28;20041;-60
2022/06/05 06:04:45;;;;;;;3.13;2.47;;;25.10;51.90;;;;;;5058725;28;21387;-59
2022/06/05 06:07:11;;;;;;;3.20;2.58;;;25.10;52.20;;;;;;5054985;28;20062;-61
2022/06/05 06:09:37;;;;;;;3.33;2.70;;;25.10;52.50;;;;;;5058437;28;20097;-60
2022/06/05 06:12:04;;;;;;;2.88;2.58;;;25.00;52.60;;;;;;5055978;28;20036;-61
2022/06/05 06:14:29;;;;;;;3.45;2.60;;;24.90;52.80;;;;;;5058218;28;20028;-60
2022/06/05 06:16:55;;;;;;;3.13;2.58;;;24.90;53.00;;;;;;5055143;28;20473;-63
2022/06/05 06:19:20;;;;;;;3.25;2.95;;;24.80;53.30;;;;;;5058030;28;20504;-59
2022/06/05 06:21:46;;;;;;;3.35;2.80;;;24.80;53.40;;;;;;5052613;28;20070;-59
2022/06/05 06:24:13;;;;;;;4.90;2.90;;;24.70;53.90;;;;;;5056437;28;20446;-62
2022/06/05 06:26:39;;;;;;;3.10;2.80;;;24.70;53.70;;;;;;5056103;28;20119;-61
2022/06/05 06:29:05;;;;;;;3.42;2.72;;;24.70;53.90;;;;;;5058076;28;20036;-61
2022/06/05 06:31:31;;;;;;;3.17;2.65;;;24.60;53.80;;;;;;5056134;28;20036;-60
2022/06/05 06:33:57;;;;;;;3.40;2.75;;;24.50;54.10;;;;;;5056969;28;20028;-63
2022/06/05 06:36:23;;;;;;;2.92;2.53;;;24.50;54.30;;;;;;5053543;28;20495;-60
2022/06/05 06:38:48;;;;;;;3.80;2.70;;;24.50;54.50;;;;;;5055973;28;20032;-61
2022/06/05 06:41:17;;;;;;;4.88;3.92;;;24.30;55.20;;;;;;5056713;28;20040;-60
2022/06/05 06:43:44;;;;;;;3.40;3.00;;;24.30;55.30;;;;;;5055447;28;20031;-63
2022/06/05 06:46:11;;;;;;;3.65;2.80;;;24.20;55.10;;;;;;5055780;28;20116;-60
2022/06/05 06:48:37;;;;;;;2.97;2.40;;;24.20;55.00;;;;;;5055950;28;20028;-60
2022/06/05 06:51:05;;;;;;;2.88;2.38;;;24.20;55.00;;;;;;5055416;28;20028;-62
2022/06/05 06:53:32;;;;;;;3.55;2.28;;;24.20;54.80;;;;;;5055017;28;20077;-60
2022/06/05 06:55:58;;;;;;;4.25;2.80;;;24.10;54.90;;;;;;5055359;28;20155;-64
2022/06/05 06:58:23;;;;;;;3.17;2.40;;;24.20;54.80;;;;;;5036981;28;20111;-63
2022/06/05 07:00:49;;;;;;;2.97;2.30;;;24.20;54.70;;;;;;5056035;28;20036;-60
2022/06/05 07:03:15;;;;;;;2.95;2.25;;;24.30;54.60;;;;;;5056474;28;20059;-61
2022/06/05 07:05:41;;;;;;;2.92;2.50;;;24.30;54.40;;;;;;5055865;28;20044;-61
2022/06/05 07:08:08;;;;;;;2.60;2.13;;;24.30;54.30;;;;;;5053509;28;20400;-63
2022/06/05 07:10:36;;;;;;;2.50;2.28;;;24.30;54.20;;;;;;5055865;28;20044;-65
2022/06/05 07:13:02;;;;;;;2.97;2.20;;;24.30;54.10;;;;;;5056247;28;20040;-64
2022/06/05 07:15:33;;;;;;;2.47;2.17;;;24.30;54.00;;;;;;5055441;28;20040;-61
2022/06/05 07:18:03;;;;;;;2.72;2.00;;;24.30;53.90;;;;;;5054331;28;20107;-62
2022/06/05 07:20:32;;;;;;;2.60;2.20;;;24.30;53.90;;;;;;5054660;28;20036;-64
2022/06/05 07:22:58;;;;;;;;;;;24.30;53.70;;;;;;5056824;28;20024;-61
2022/06/05 07:25:24;;;;;;;2.78;2.22;;;24.30;53.70;;;;;;5054231;28;19935;-60
2022/06/05 07:27:49;;;;;;;3.13;2.38;;;24.30;53.60;;;;;;5055062;28;20491;-60
2022/06/05 07:30:15;;;;;;;2.30;2.10;;;24.30;53.70;;;;;;5054333;28;20024;-61
2022/06/05 07:32:40;;;;;;;2.67;2.20;;;24.30;53.50;;;;;;5053216;28;20438;-62
2022/06/05 07:35:06;;;;;;;2.97;2.40;;;24.30;53.50;;;;;;5055433;28;20219;-61
2022/06/05 07:37:33;;;;;;;2.60;2.03;;;24.30;53.50;;;;;;5052329;28;20037;-60
2022/06/05 07:39:58;;;;;;;2.45;2.08;;;24.30;53.50;;;;;;5052387;28;20400;-63
2022/06/05 07:42:24;;;;;;;2.42;2.10;;;24.30;53.50;;;;;;5054577;28;20336;-60
2022/06/05 07:44:50;;;;;;;2.83;2.10;;;24.30;53.40;;;;;;5055912;28;20431;-63
2022/06/05 07:47:15;;;;;;;2.63;2.05;;;24.30;53.30;;;;;;5053094;28;20041;-60
2022/06/05 07:49:41;;;;;;;2.58;2.10;;;24.30;53.30;;;;;;5057217;28;20024;-60
2022/06/05 07:54:55;;;;;;;2.43;1.90;;;24.30;53.20;;;;;;5053896;28;20036;-62
2022/06/05 07:57:20;;;;;;;2.72;2.20;;;24.30;53.20;;;;;;5053366;28;20279;-62
2022/06/05 07:59:48;;;;;;;2.83;2.15;;;24.30;53.10;;;;;;5054453;28;20035;-61
2022/06/05 08:02:20;;;;;;;2.45;2.10;;;24.30;53.70;;;;;;5048979;28;20040;-63
2022/06/05 08:04:47;;;;;;;2.88;1.95;;;24.30;53.20;;;;;;5048945;28;20032;-63
2022/06/05 08:07:16;;;;;;;2.40;1.90;;;24.30;53.10;;;;;;5033724;28;20059;-62
2022/06/05 08:09:42;;;;;;;2.65;1.88;;;24.30;53.10;;;;;;5051702;28;20115;-59
2022/06/05 08:12:10;;;;;;;3.00;2.10;;;24.40;53.10;;;;;;5052342;28;20035;-63
2022/06/05 08:14:37;;;;;;;2.42;1.70;;;24.40;53.00;;;;;;5051945;28;20061;-59
2022/06/05 08:17:06;;;;;;;2.78;1.80;;;24.40;53.00;;;;;;5050486;28;20166;-58
2022/06/05 08:19:32;;;;;;;2.37;1.70;;;24.30;52.90;;;;;;5053215;28;20067;-61
2022/06/05 08:21:57;;;;;;;2.30;1.63;;;24.30;52.90;;;;;;5050726;28;20360;-63
2022/06/05 08:24:23;;;;;;;2.47;1.73;;;24.30;52.90;;;;;;5050553;28;20278;-63
2022/06/05 08:26:51;;;;;;;2.30;1.90;;;24.40;53.00;;;;;;5041443;28;20085;-63
2022/06/05 08:29:17;;;;;;;2.25;1.70;;;24.40;52.90;;;;;;5050016;28;20036;-62
2022/06/05 08:31:43;;;;;;;2.10;1.80;;;24.40;53.00;;;;;;5052545;28;20048;-62
2022/06/05 08:34:09;;;;;;;2.10;1.70;;;24.40;53.00;;;;;;5052064;28;20999;-61
2022/06/05 08:36:35;;;;;;;2.20;1.70;;;24.40;52.90;;;;;;5048662;28;20450;-62
2022/06/05 08:42:11;;;;;;;1.85;1.50;;;24.40;52.90;;;;;;5053083;28;20115;-62
2022/06/05 08:45:09;;;;;;;1.83;1.48;;;24.40;52.80;;;;;;5051461;28;20082;-61
2022/06/05 08:47:59;;;;;;;1.83;1.60;;;24.40;52.80;;;;;;5050281;28;20032;-61
2022/06/05 08:50:40;;;;;;;1.67;1.42;;;24.40;52.70;;;;;;5051539;28;20025;-59
2022/06/05 08:53:22;;;;;;;2.13;1.63;;;24.40;52.70;;;;;;5051272;28;20131;-63
2022/06/05 08:55:52;;;;;;;1.90;1.45;;;24.40;52.60;;;;;;5049671;28;20401;-61
2022/06/05 08:58:32;;;;;;;2.33;1.50;;;24.40;52.50;;;;;;5045632;28;20580;-62
2022/06/05 09:01:03;;;;;;;2.13;1.52;;;24.40;52.50;;;;;;5048443;28;20490;-62
2022/06/05 09:03:56;;;;;;;1.88;1.50;;;24.40;52.50;;;;;;5051442;28;20170;-63
2022/06/05 09:06:38;;;;;;;1.90;1.33;;;24.40;52.50;;;;;;5050018;28;20024;-62
2022/06/05 09:09:11;;;;;;;2.03;1.50;;;24.40;52.50;;;;;;5052222;28;20043;-62
2022/06/05 09:11:42;;;;;;;2.15;1.60;;;24.50;52.50;;;;;;5050951;28;20032;-61
2022/06/05 09:14:15;;;;;;;2.25;1.63;;;24.40;52.90;;;;;;5052253;28;20029;-60
2022/06/05 09:16:47;;;;;;;3.10;1.60;;;24.40;52.50;;;;;;5049608;28;20258;-61
2022/06/05 09:19:18;;;;;;;2.72;1.50;;;24.40;52.50;;;;;;5054332;28;20170;-62
2022/06/05 09:22:09;;;;;;;1.75;1.40;;;24.40;52.40;;;;;;5050096;28;20526;-61
2022/06/05 09:24:56;;;;;;;1.88;1.50;;;24.50;52.50;;;;;;5053557;28;20376;-60
2022/06/05 09:27:32;;;;;;;2.08;1.50;;;24.40;52.40;;;;;;5052119;28;20560;-61
2022/06/05 09:30:11;;;;;;;1.60;1.33;;;24.50;52.60;;;;;;5052941;28;20036;-60
2022/06/05 09:32:46;;;;;;;2.00;1.60;;;24.40;53.00;;;;;;5051794;28;20109;-60
2022/06/05 09:35:11;;;;;;;1.90;1.50;;;24.40;52.40;;;;;;5050741;28;20444;-60
2022/06/05 09:37:49;;;;;;;1.83;1.52;;;24.40;52.40;;;;;;5049895;28;20025;-61
2022/06/05 09:40:33;;;;;;;1.58;1.33;;;24.50;52.50;;;;;;5051749;28;20123;-60
2022/06/05 09:43:26;;;;;;;1.98;1.50;;;24.50;52.70;;;;;;5052658;28;21477;-59
2022/06/05 09:46:20;;;;;;;1.40;1.30;;;24.50;52.70;;;;;;5052072;28;20036;-60
2022/06/05 09:48:51;;;;;;;1.60;1.38;;;24.40;53.10;;;;;;5053672;28;20425;-60
2022/06/05 09:51:19;;;;;;;1.98;1.50;;;24.50;52.70;;;;;;5053198;28;20783;-61
2022/06/05 09:53:47;;;;;;;1.52;1.25;;;24.50;52.60;;;;;;5050231;28;20072;-61
2022/06/05 09:56:22;;;;;;;2.10;1.45;;;24.50;52.60;;;;;;5052585;28;20094;-60
2022/06/05 09:59:10;;;;;;;1.65;1.35;;;24.50;52.60;;;;;;5052303;28;20033;-59
2022/06/05 10:01:51;;;;;;;2.17;1.67;;;24.50;52.60;;;;;;5053280;28;20515;-62
2022/06/05 10:04:20;;;;;;;2.00;1.48;;;24.50;52.50;;;;;;5055230;28;20101;-62
2022/06/05 10:06:52;;;;;;;2.05;1.60;;;24.50;52.40;;;;;;5052775;28;20036;-60
2022/06/05 10:09:27;;;;;;;2.35;1.40;;;24.50;52.40;;;;;;5055167;28;20032;-62
2022/06/05 10:12:03;;;;;;;1.73;1.35;;;24.50;52.50;;;;;;5054460;28;20017;-61
2022/06/05 10:14:35;;;;;;;1.90;1.60;;;24.50;52.50;;;;;;5052634;28;20039;-62
2022/06/05 10:17:14;;;;;;;2.38;1.50;;;24.50;52.40;;;;;;5052433;28;20017;-62
2022/06/05 10:19:48;;;;;;;1.75;1.50;;;24.50;52.40;;;;;;5053381;28;20033;-60
2022/06/05 10:22:42;;;;;;;2.00;1.38;;;24.50;52.30;;;;;;5053650;28;20044;-62
2022/06/05 10:25:27;;;;;;;2.50;1.88;;;24.50;52.30;;;;;;5050885;28;20460;-62
2022/06/05 10:28:21;;;;;;;1.60;1.40;;;24.50;52.30;;;;;;5052960;28;20272;-62
2022/06/05 10:30:56;;;;;;;1.92;1.40;;;24.50;52.30;;;;;;5051108;28;20151;-61
2022/06/05 10:33:40;;;;;;;2.22;1.60;;;24.50;52.30;;;;;;5054001;28;20524;-63
2022/06/05 10:36:22;;;;;;;2.35;1.40;;;24.50;52.20;;;;;;5054007;28;20028;-63
2022/06/05 10:39:10;;;;;;;1.80;1.40;;;24.50;52.20;;;;;;5053691;28;20032;-62
2022/06/05 10:41:53;;;;;;;1.87;1.30;;;24.50;52.30;;;;;;5051053;28;20041;-61
2022/06/05 10:44:34;;;;;;;1.40;1.20;;;24.50;52.20;;;;;;5050899;28;20038;-60
2022/06/05 10:47:24;;;;;;;1.77;1.33;;;24.50;52.30;;;;;;5051228;28;20040;-60
2022/06/05 10:50:04;;;;;;;1.48;1.10;;;24.50;52.30;;;;;;5052338;28;20475;-60
2022/06/05 10:52:47;;;;;;;1.88;1.33;;;24.50;52.20;;;;;;5051713;28;20088;-63
2022/06/05 10:55:41;;;;;;;1.70;1.30;;;24.50;52.60;;;;;;5052292;28;20029;-63
2022/06/05 10:58:23;;;;;;;2.78;1.50;;;24.50;52.70;;;;;;5050283;28;20089;-61
2022/06/05 11:00:49;;;;;;;1.77;1.35;;;24.50;52.30;;;;;;5052827;28;20696;-58
2022/06/05 11:03:24;;;;;;;1.40;1.20;;;24.60;52.90;;;;;;5050639;28;20127;-62
2022/06/05 11:06:04;;;;;;;1.20;1.10;;;24.50;53.00;;;;;;5039046;28;20032;-59
2022/06/05 11:09:01;;;;;;;1.42;1.20;;;24.60;52.90;;;;;;5053281;28;20097;-62
2022/06/05 11:14:37;;;;;;;1.17;1.00;;;24.60;53.30;;;;;;5053172;28;20395;-62
2022/06/05 11:17:35;;;;;;;1.65;1.20;;;24.60;53.10;;;;;;5051984;28;20039;-63
2022/06/05 11:20:06;;;;;;;1.77;1.13;;;24.60;53.40;;;;;;5047765;28;20028;-62
2022/06/05 11:22:34;;;;;;;1.90;1.13;;;24.60;53.40;;;;;;5042732;28;20572;-62
2022/06/05 11:25:32;;;;;;;1.60;1.20;;;24.60;53.90;;;;;;5048975;28;20063;-61
2022/06/05 11:28:32;;;;;;;1.50;1.10;;;24.60;54.70;;;;;;5048612;28;20084;-60
2022/06/05 11:31:17;;;;;;;1.23;1.00;;;24.70;55.10;;;;;;5047401;28;21195;-61
2022/06/05 11:34:09;;;;;;;1.25;0.90;;;24.70;55.10;;;;;;5049127;28;20063;-61
2022/06/05 11:36:49;;;;;;;1.80;1.10;;;24.70;55.10;;;;;;5047603;28;20129;-61
2022/06/05 11:39:36;;;;;;;1.50;1.00;;;24.80;55.50;;;;;;5048257;28;20111;-60
2022/06/05 11:42:26;;;;;;;1.10;0.93;;;24.80;55.70;;;;;;5051875;28;20062;-61
2022/06/05 11:45:00;;;;;;;2.22;1.10;;;24.90;55.70;;;;;;5053099;28;20078;-62
2022/06/05 11:47:43;;;;;;;1.10;1.00;;;24.90;55.30;;;;;;5052854;28;20072;-63
2022/06/05 11:51:07;;;;;;;1.25;0.95;;;24.90;55.60;;;;;;5051050;28;20036;-63
2022/06/05 11:53:47;;;;;;;1.17;0.98;;;25.00;55.70;;;;;;4926758;28;20043;-62
2022/06/05 11:56:52;;;;;;;1.58;1.05;;;25.00;55.60;;;;;;5051339;28;20024;-60
2022/06/05 11:59:27;;;;;;;1.38;1.02;;;25.00;55.70;;;;;;4947644;28;20071;-61
2022/06/05 12:02:26;;;;;;;1.20;1.00;;;25.10;55.10;;;;;;5031035;28;20059;-59
2022/06/05 12:05:04;;;;;;;1.58;1.10;;;25.10;55.60;;;;;;5012584;28;20127;-61
2022/06/05 12:07:32;;;;;;;1.42;0.90;;;25.10;55.50;;;;;;5051526;28;20380;-65
2022/06/05 12:10:23;;;;;;;1.48;1.10;;;25.20;55.50;;;;;;5053623;28;20380;-62
2022/06/05 12:12:56;;;;;;;1.70;0.90;;;25.20;55.40;;;;;;5052555;28;20108;-64
2022/06/05 12:15:37;;;;;;;2.22;1.10;;;25.20;55.40;;;;;;5051078;28;20020;-62
2022/06/05 12:18:16;;;;;;;3.13;1.25;;;25.30;55.50;;;;;;5051102;28;20028;-63
2022/06/05 12:21:01;;;;;;;1.80;1.02;;;25.30;55.40;;;;;;5053224;28;20491;-64
2022/06/05 12:23:46;;;;;;;1.40;1.10;;;25.30;55.70;;;;;;5051531;28;20082;-63
2022/06/05 12:26:20;;;;;;;2.03;1.20;;;25.30;55.60;;;;;;5047748;28;20038;-63
2022/06/05 12:28:48;;;;;;;1.30;0.95;;;25.30;55.50;;;;;;5049522;28;20037;-64
2022/06/05 12:31:58;;;;;;;1.10;1.00;;;25.40;55.40;;;;;;5050627;28;20043;-61
2022/06/05 12:34:44;;;;;;;2.05;1.20;;;25.40;55.50;;;;;;5004713;28;20050;-64
2022/06/05 12:37:41;;;;;;;2.10;1.10;;;25.40;55.30;;;;;;5047829;28;20029;-64
2022/06/05 12:40:17;;;;;;;1.63;1.00;;;25.40;55.50;;;;;;5050839;28;20040;-60
2022/06/05 12:43:30;;;;;;;1.15;0.90;;;25.40;55.30;;;;;;5051003;28;20429;-63
2022/06/05 12:46:27;;;;;;;1.77;1.10;;;25.40;55.20;;;;;;4946753;28;20121;-60
2022/06/05 12:49:12;;;;;;;3.70;1.10;;;25.40;55.00;;;;;;4940087;28;20467;-62
2022/06/05 12:51:43;;;;;;;1.20;1.05;;;25.40;55.10;;;;;;5035599;28;20039;-60
2022/06/05 12:54:30;;;;;;;1.15;1.00;;;25.50;55.00;;;;;;5042756;28;20067;-63
2022/06/05 12:56:59;;;;;;;1.70;1.10;;;25.40;54.90;;;;;;5053845;28;20343;-62
2022/06/05 12:59:40;;;;;;;1.83;1.00;;;25.40;54.80;;;;;;5057971;28;20054;-60
2022/06/05 13:02:16;;;;;;;2.08;1.10;;;25.50;54.90;;;;;;5058678;28;20705;-61
2022/06/05 13:04:51;;;;;;;1.77;1.10;;;25.50;54.70;;;;;;5057763;28;20455;-62
2022/06/05 13:07:38;;;;;;;1.40;1.00;;;25.50;54.80;;;;;;5056491;28;20495;-61
2022/06/05 13:10:22;;;;;;;1.52;0.95;;;25.50;54.90;;;;;;5052181;28;20027;-61
2022/06/05 13:12:55;;;;;;;1.13;0.90;;;25.50;54.90;;;;;;5054646;28;20123;-62
2022/06/05 13:15:21;;;;;;;1.80;1.00;;;25.60;54.80;;;;;;5054997;28;20542;-59
2022/06/05 13:18:18;;;;;;;1.50;1.10;;;25.60;54.90;;;;;;5053456;28;20188;-62
2022/06/05 13:21:14;;;;;;;1.83;0.98;;;25.60;55.00;;;;;;5056047;28;20111;-59
2022/06/05 13:23:46;;;;;;;2.13;1.10;;;25.60;55.00;;;;;;5056671;28;20059;-60
2022/06/05 13:26:11;;;;;;;2.20;1.10;;;25.70;54.90;;;;;;5054010;28;20021;-61
2022/06/05 13:28:55;;;;;;;2.17;1.10;;;25.70;55.00;;;;;;5051501;28;20846;-61
2022/06/05 13:31:28;;;;;;;1.90;1.02;;;25.70;54.70;;;;;;5057984;28;20512;-61
2022/06/05 13:34:12;;;;;;;1.40;1.10;;;25.70;54.90;;;;;;5058421;28;20935;-62
2022/06/05 13:37:14;;;;;;;2.75;1.00;;;25.70;54.90;;;;;;5056869;28;20103;-64